Spring Valley Lake, California
Current Conditions -  °F | °C
As of 5:15 PM on Friday 24 Oct 2014 (Local Time) from KVCV Reporting Station
Clear Clear  
Wind Chill: 82°   Ceiling: Unl
Heat Index: 82°   Visibility: 10mi
Dew Point: 30°   Wind: 18mph
Humidity: 15%   Direction: 180°S
Pressure: 30"   Gusts: 22mph
Location:  34.483°N, 117.376°W
Report Text: KVCV 250015Z AUTO 18016G19KT 10SM CLR 28/M01 A3000 RMK AO2
Loading
Personal Weather Stations






























Interactive Weather Map
Tropical Storm Tracking
New forecast layout! Learn more

10-Day Weather Forecast

Advertisements
Track Severe Weather on mobile